Time;durP1;ratioP1;P1;durP2;ratioP2;P2;SDS_P1;SDS_P2;PMS_P1;PMS_P2;Temp;Humidity;BMP_temperature;BMP_pressure;BME280_temperature;BME280_humidity;BME280_pressure;Samples;Min_cycle;Max_cycle;Signal;HPM_P1;HPM_P2
2023/07/08 00:01:29;;;;;;;4.57;4.28;;;21.50;99.90;;;;;;5153797;27;20204;-78
2023/07/08 00:03:56;;;;;;;6.90;4.40;;;21.50;99.90;;;;;;5117446;27;20777;-79
2023/07/08 00:06:28;;;;;;;5.10;4.65;;;21.40;99.90;;;;;;5120083;27;20734;-78
2023/07/08 00:08:55;;;;;;;5.50;4.90;;;21.40;99.90;;;;;;5131780;27;20284;-78
2023/07/08 00:11:23;;;;;;;6.95;4.55;;;21.40;99.90;;;;;;5132153;27;20300;-78
2023/07/08 00:13:50;;;;;;;6.13;4.63;;;21.40;99.90;;;;;;5114728;27;20298;-79
2023/07/08 00:16:19;;;;;;;4.80;4.47;;;21.30;99.90;;;;;;5110394;28;20337;-79
2023/07/08 00:18:48;;;;;;;5.30;4.60;;;21.30;99.90;;;;;;5127474;27;20232;-78
2023/07/08 00:21:17;;;;;;;6.88;5.18;;;21.30;99.90;;;;;;5130716;27;20274;-79
2023/07/08 00:23:45;;;;;;;7.43;4.82;;;21.20;99.90;;;;;;5113830;27;20232;-78
2023/07/08 00:26:16;;;;;;;5.07;4.68;;;21.20;99.90;;;;;;5139090;27;20253;-78
2023/07/08 00:28:43;;;;;;;6.82;5.30;;;21.20;99.90;;;;;;5142600;27;20642;-79
2023/07/08 00:31:11;;;;;;;5.78;5.18;;;21.10;99.90;;;;;;5129036;27;20312;-79
2023/07/08 00:33:38;;;;;;;6.20;5.15;;;21.10;99.90;;;;;;5129576;27;20212;-79
2023/07/08 00:36:11;;;;;;;5.32;4.82;;;21.10;99.90;;;;;;5129858;27;20304;-78
2023/07/08 00:38:38;;;;;;;5.05;4.65;;;21.10;99.90;;;;;;5109779;28;20277;-78
2023/07/08 00:41:11;;;;;;;5.30;4.60;;;21.00;99.90;;;;;;5108900;28;20212;-79
2023/07/08 00:43:41;;;;;;;5.20;4.72;;;21.00;99.90;;;;;;5109357;28;20228;-80
2023/07/08 00:46:30;;;;;;;6.75;5.13;;;21.00;99.90;;;;;;5109712;28;20297;-79
2023/07/08 00:49:03;;;;;;;5.30;4.30;;;21.00;99.90;;;;;;5109492;28;20508;-79
2023/07/08 00:51:31;;;;;;;8.00;5.25;;;20.90;99.90;;;;;;5109492;27;20221;-79
2023/07/08 00:53:58;;;;;;;5.13;4.72;;;20.90;99.90;;;;;;5109084;28;20653;-80
2023/07/08 00:56:29;;;;;;;8.95;5.32;;;20.90;99.90;;;;;;5135632;27;20243;-79
2023/07/08 00:59:00;;;;;;;5.93;5.43;;;20.90;99.90;;;;;;5141461;27;20209;-81
2023/07/08 01:01:29;;;;;;;6.07;5.28;;;20.90;99.90;;;;;;5122958;27;20210;-81
2023/07/08 01:04:01;;;;;;;5.40;4.90;;;20.90;99.90;;;;;;5107210;28;20241;-81
2023/07/08 01:06:34;;;;;;;8.50;5.38;;;20.90;99.90;;;;;;5106950;28;20190;-81
2023/07/08 01:09:04;;;;;;;5.82;5.05;;;20.80;99.90;;;;;;5107304;28;20206;-81
2023/07/08 01:11:33;;;;;;;6.53;5.20;;;20.80;99.90;;;;;;5107026;28;20221;-82
2023/07/08 01:14:03;;;;;;;6.82;5.00;;;20.80;99.90;;;;;;5107228;28;20235;-81
2023/07/08 01:16:33;;;;;;;6.25;5.43;;;20.80;99.90;;;;;;5115371;27;20198;-81
2023/07/08 01:19:00;;;;;;;6.03;5.05;;;20.80;99.90;;;;;;5127886;27;20273;-82
2023/07/08 01:21:33;;;;;;;5.78;5.20;;;20.80;99.90;;;;;;5127231;27;20201;-80
2023/07/08 01:24:04;;;;;;;8.07;5.53;;;20.70;99.90;;;;;;5127116;27;20220;-80
2023/07/08 01:26:31;;;;;;;6.57;6.00;;;20.70;99.90;;;;;;5141249;27;21063;-80
2023/07/08 01:28:59;;;;;;;6.85;5.55;;;20.70;99.90;;;;;;5147796;27;20284;-80
2023/07/08 01:31:26;;;;;;;5.93;5.50;;;20.70;99.90;;;;;;5145510;27;20204;-78
2023/07/08 01:33:54;;;;;;;5.35;4.80;;;20.70;99.90;;;;;;5126968;27;20224;-80
2023/07/08 01:36:21;;;;;;;9.30;5.85;;;20.60;99.90;;;;;;5125090;27;20240;-80
2023/07/08 01:38:48;;;;;;;6.07;5.45;;;20.60;99.90;;;;;;5106511;28;20270;-80
2023/07/08 01:41:18;;;;;;;6.07;5.15;;;20.60;99.90;;;;;;5106791;28;20206;-80
2023/07/08 01:43:45;;;;;;;7.10;5.35;;;20.60;99.90;;;;;;5105966;28;20222;-80
2023/07/08 01:46:18;;;;;;;6.05;4.78;;;20.50;99.90;;;;;;5106103;28;20206;-80
2023/07/08 01:48:48;;;;;;;5.82;5.03;;;20.50;99.90;;;;;;5106525;28;20190;-80
2023/07/08 01:51:15;;;;;;;4.78;4.38;;;20.50;99.90;;;;;;5105986;28;20735;-80
2023/07/08 01:53:43;;;;;;;5.53;4.97;;;20.50;99.90;;;;;;5106583;28;20615;-80
2023/07/08 01:56:12;;;;;;;6.15;5.00;;;20.50;99.90;;;;;;5106210;28;20241;-81
2023/07/08 01:58:41;;;;;;;5.07;4.68;;;20.50;99.90;;;;;;5106253;28;20288;-80
2023/07/08 02:01:08;;;;;;;5.55;5.00;;;20.40;99.90;;;;;;5106067;28;20206;-80
2023/07/08 02:03:35;;;;;;;5.00;4.60;;;20.30;99.90;;;;;;5125535;27;20231;-80
2023/07/08 02:06:03;;;;;;;5.87;4.67;;;20.30;99.90;;;;;;5126462;27;20300;-80
2023/07/08 02:08:29;;;;;;;5.38;4.97;;;20.30;99.90;;;;;;5127050;27;20208;-81
2023/07/08 02:10:58;;;;;;;5.43;4.77;;;20.30;99.90;;;;;;5112715;27;20238;-80
2023/07/08 02:13:26;;;;;;;5.35;4.90;;;20.20;99.90;;;;;;5123211;27;20201;-80
2023/07/08 02:15:54;;;;;;;5.30;4.90;;;20.20;99.90;;;;;;5124807;27;20902;-80
2023/07/08 02:18:23;;;;;;;5.22;4.75;;;20.20;99.90;;;;;;5120400;27;20224;-80
2023/07/08 02:20:50;;;;;;;8.37;4.90;;;20.10;99.90;;;;;;5126682;27;20282;-80
2023/07/08 02:23:17;;;;;;;5.22;4.72;;;20.10;99.90;;;;;;5127102;27;20544;-80
2023/07/08 02:25:52;;;;;;;6.35;4.65;;;20.10;99.90;;;;;;5126368;27;20243;-81
2023/07/08 02:28:19;;;;;;;5.65;5.13;;;20.10;99.90;;;;;;5127339;27;20189;-79
2023/07/08 02:30:46;;;;;;;5.60;5.07;;;20.00;99.90;;;;;;5126853;27;20306;-79
2023/07/08 02:33:17;;;;;;;5.20;4.70;;;20.10;99.90;;;;;;5126435;27;20213;-79
2023/07/08 02:35:44;;;;;;;7.95;5.20;;;20.00;99.90;;;;;;5126245;28;20974;-79
2023/07/08 02:38:11;;;;;;;5.60;5.07;;;20.00;99.90;;;;;;5126829;28;20209;-79
2023/07/08 02:40:38;;;;;;;6.65;5.22;;;20.00;99.90;;;;;;5118925;28;20206;-79
2023/07/08 02:43:05;;;;;;;6.68;4.80;;;20.00;99.90;;;;;;5105727;28;20227;-80
2023/07/08 02:45:32;;;;;;;5.18;4.78;;;20.00;99.90;;;;;;5126795;28;20340;-80
2023/07/08 02:47:59;;;;;;;7.82;5.30;;;19.90;99.90;;;;;;5126626;28;20206;-79
2023/07/08 02:50:27;;;;;;;5.93;5.45;;;19.90;99.90;;;;;;5125906;28;20205;-79
2023/07/08 02:52:54;;;;;;;5.63;5.20;;;19.80;99.90;;;;;;5106083;28;20206;-79
2023/07/08 02:55:21;;;;;;;5.47;4.93;;;19.70;99.90;;;;;;5105061;28;20208;-79
2023/07/08 02:57:48;;;;;;;5.20;4.70;;;19.70;99.90;;;;;;5104914;28;20318;-78
2023/07/08 03:00:16;;;;;;;6.72;5.00;;;19.70;99.90;;;;;;5105621;28;20735;-77
2023/07/08 03:02:42;;;;;;;6.00;5.40;;;19.70;99.90;;;;;;5105771;28;20215;-77
2023/07/08 03:05:09;;;;;;;12.23;5.35;;;19.70;99.90;;;;;;5105249;28;20699;-77
2023/07/08 03:07:38;;;;;;;6.60;5.43;;;19.60;99.90;;;;;;5123492;27;20297;-78
2023/07/08 03:10:05;;;;;;;6.00;5.20;;;19.60;99.90;;;;;;5126551;28;20206;-78
2023/07/08 03:12:32;;;;;;;5.70;5.30;;;19.60;99.90;;;;;;5125043;28;20204;-78
2023/07/08 03:14:58;;;;;;;5.73;5.23;;;19.60;99.90;;;;;;5126035;28;20707;-78
2023/07/08 03:17:25;;;;;;;5.93;5.33;;;19.50;99.90;;;;;;5125781;28;20761;-78
2023/07/08 03:19:52;;;;;;;6.38;5.55;;;19.50;99.90;;;;;;5125788;28;20617;-78
2023/07/08 03:22:19;;;;;;;5.73;5.17;;;19.50;99.90;;;;;;5125888;28;20292;-78
2023/07/08 03:24:47;;;;;;;7.03;5.20;;;19.40;99.90;;;;;;5127100;27;20228;-78
2023/07/08 03:27:15;;;;;;;5.43;4.93;;;19.40;99.90;;;;;;5130145;27;20267;-80
2023/07/08 03:29:42;;;;;;;6.57;5.10;;;19.40;99.90;;;;;;5129736;27;20650;-81
2023/07/08 03:32:10;;;;;;;7.43;5.33;;;19.40;99.90;;;;;;5123638;27;20205;-83
2023/07/08 03:34:37;;;;;;;5.70;5.20;;;19.40;99.90;;;;;;5116175;27;20211;-82
2023/07/08 03:37:05;;;;;;;5.73;5.27;;;19.40;99.90;;;;;;5129556;27;20296;-83
2023/07/08 03:39:34;;;;;;;6.97;5.63;;;19.40;99.90;;;;;;5126096;27;20297;-82
2023/07/08 03:42:03;;;;;;;5.67;5.17;;;19.30;99.90;;;;;;5110967;27;20316;-78
2023/07/08 03:44:30;;;;;;;7.97;5.57;;;19.30;99.90;;;;;;5108047;28;20249;-77
2023/07/08 03:46:57;;;;;;;5.53;5.00;;;19.30;99.90;;;;;;5108415;28;20300;-77
2023/07/08 03:49:24;;;;;;;5.53;5.00;;;19.40;99.90;;;;;;5108123;28;20753;-77
2023/07/08 03:51:54;;;;;;;5.70;5.07;;;19.40;99.90;;;;;;5111476;27;20575;-77
2023/07/08 03:54:24;;;;;;;5.50;5.00;;;19.40;99.90;;;;;;5121170;27;21000;-81
2023/07/08 03:56:51;;;;;;;5.90;5.40;;;19.40;99.90;;;;;;5143070;27;20233;-80
2023/07/08 03:59:19;;;;;;;5.23;4.70;;;19.40;99.90;;;;;;5149563;27;20208;-80
2023/07/08 04:01:46;;;;;;;5.80;5.30;;;19.40;99.90;;;;;;5149124;27;20204;-84
2023/07/08 04:04:15;;;;;;;7.53;5.10;;;19.40;99.90;;;;;;5108473;28;20296;-79
2023/07/08 04:06:43;;;;;;;7.33;4.97;;;19.40;99.90;;;;;;5108688;28;20210;-80
2023/07/08 04:09:10;;;;;;;5.20;4.70;;;19.40;99.90;;;;;;5109396;28;20206;-79
2023/07/08 04:11:37;;;;;;;5.27;4.80;;;19.40;99.90;;;;;;5129699;27;20289;-79
2023/07/08 04:14:03;;;;;;;6.27;4.50;;;19.40;99.90;;;;;;5129397;27;20316;-79
2023/07/08 04:16:42;;;;;;;5.07;4.67;;;19.40;99.90;;;;;;5128750;27;20292;-78
2023/07/08 04:19:14;;;;;;;5.57;4.83;;;19.50;99.90;;;;;;5129046;27;20190;-79
2023/07/08 04:21:41;;;;;;;5.10;4.70;;;19.50;99.90;;;;;;5114588;27;20275;-80
2023/07/08 04:24:10;;;;;;;5.30;4.90;;;19.50;99.90;;;;;;5107958;28;20228;-80
2023/07/08 04:26:39;;;;;;;7.53;4.47;;;19.50;99.90;;;;;;5107588;28;20234;-79
2023/07/08 04:29:07;;;;;;;6.17;4.83;;;19.50;99.90;;;;;;5107429;28;20258;-80
2023/07/08 04:31:35;;;;;;;5.67;5.10;;;19.50;99.90;;;;;;5107932;28;20210;-79
2023/07/08 04:34:02;;;;;;;5.50;4.93;;;19.60;99.90;;;;;;5108438;28;20206;-80
2023/07/08 04:36:30;;;;;;;5.30;4.80;;;19.60;99.90;;;;;;5108933;27;20206;-80
2023/07/08 04:38:57;;;;;;;9.00;5.00;;;19.60;99.90;;;;;;5107565;28;20568;-79
2023/07/08 04:41:25;;;;;;;7.37;4.77;;;19.70;99.90;;;;;;5107544;28;20251;-79
2023/07/08 04:43:53;;;;;;;7.03;5.40;;;19.60;99.90;;;;;;5107473;28;20209;-79
2023/07/08 04:46:27;;;;;;;5.53;4.80;;;19.60;99.90;;;;;;5107903;28;20226;-80
2023/07/08 04:48:55;;;;;;;4.87;4.50;;;19.70;99.90;;;;;;5107975;28;20232;-79
2023/07/08 04:51:24;;;;;;;5.32;4.93;;;19.70;99.90;;;;;;5107479;28;20221;-78
2023/07/08 04:53:51;;;;;;;5.38;4.68;;;19.80;99.90;;;;;;5107566;28;20206;-78
2023/07/08 04:56:18;;;;;;;6.88;4.45;;;19.80;99.90;;;;;;5139356;27;20669;-79
2023/07/08 04:58:45;;;;;;;8.80;4.73;;;19.80;99.90;;;;;;5142112;27;20679;-79
2023/07/08 05:01:12;;;;;;;4.70;4.30;;;19.80;99.90;;;;;;5128237;27;20229;-81
2023/07/08 05:03:39;;;;;;;4.50;4.18;;;19.80;99.90;;;;;;5111025;27;20293;-79
2023/07/08 05:06:07;;;;;;;4.93;3.85;;;19.90;99.90;;;;;;5116185;27;20611;-79
2023/07/08 05:08:34;;;;;;;4.43;4.00;;;20.00;99.90;;;;;;5107789;28;20313;-69
2023/07/08 05:11:01;;;;;;;7.53;4.47;;;20.00;99.90;;;;;;5107312;28;20660;-80
2023/07/08 05:13:28;;;;;;;4.35;3.95;;;20.00;99.90;;;;;;5106968;28;20206;-80
2023/07/08 05:15:55;;;;;;;4.28;3.97;;;20.00;99.90;;;;;;5107246;28;20198;-81
2023/07/08 05:18:21;;;;;;;4.07;3.78;;;20.10;99.90;;;;;;5107352;28;20210;-80
2023/07/08 05:20:52;;;;;;;4.20;3.90;;;20.10;99.90;;;;;;5107114;28;20216;-81
2023/07/08 05:23:20;;;;;;;4.65;3.90;;;20.20;99.90;;;;;;5105428;28;20205;-81
2023/07/08 05:25:47;;;;;;;5.07;3.50;;;20.20;99.90;;;;;;5105166;28;20244;-81
2023/07/08 05:28:14;;;;;;;3.78;3.47;;;20.20;99.90;;;;;;5105124;28;20229;-82
2023/07/08 05:30:41;;;;;;;7.38;3.78;;;20.30;99.90;;;;;;5105339;28;20240;-81
2023/07/08 05:33:09;;;;;;;6.45;3.88;;;20.40;99.90;;;;;;5117654;27;20316;-82
2023/07/08 05:35:35;;;;;;;3.80;3.53;;;20.50;99.90;;;;;;5125301;27;20201;-82
2023/07/08 05:38:03;;;;;;;5.07;4.13;;;20.60;99.90;;;;;;5109874;27;20218;-82
2023/07/08 05:40:31;;;;;;;5.45;3.80;;;20.70;99.90;;;;;;5124914;27;20200;-81
2023/07/08 05:42:58;;;;;;;4.07;3.78;;;20.70;99.90;;;;;;5136041;27;20197;-81
2023/07/08 05:45:25;;;;;;;9.95;4.10;;;20.80;99.90;;;;;;5114827;27;20226;-82
2023/07/08 05:47:51;;;;;;;9.40;3.90;;;20.80;99.90;;;;;;5115602;27;20210;-82
2023/07/08 05:50:18;;;;;;;5.72;4.13;;;20.90;99.90;;;;;;5105738;28;20301;-81
2023/07/08 05:52:45;;;;;;;5.50;3.65;;;21.00;99.90;;;;;;5105719;28;20206;-83
2023/07/08 05:55:12;;;;;;;4.28;3.88;;;21.00;99.90;;;;;;5116906;27;20265;-81
2023/07/08 05:57:40;;;;;;;7.25;3.55;;;21.00;99.90;;;;;;5145652;27;20271;-82
2023/07/08 06:00:09;;;;;;;4.15;3.72;;;21.10;99.90;;;;;;5133963;27;20234;-82
2023/07/08 06:02:36;;;;;;;4.22;3.90;;;21.10;99.90;;;;;;5125621;27;20197;-82
2023/07/08 06:05:02;;;;;;;3.53;3.33;;;21.20;99.90;;;;;;5126234;27;20231;-82
2023/07/08 06:07:29;;;;;;;6.30;3.85;;;21.20;99.90;;;;;;5125076;27;20281;-82
2023/07/08 06:09:56;;;;;;;4.38;3.53;;;21.30;99.90;;;;;;5125424;27;20201;-80
2023/07/08 06:12:23;;;;;;;8.73;3.72;;;21.30;99.90;;;;;;5125158;27;20287;-81
2023/07/08 06:14:52;;;;;;;4.50;3.70;;;21.40;99.90;;;;;;5125831;27;20316;-81
2023/07/08 06:17:19;;;;;;;3.60;3.30;;;21.40;99.90;;;;;;5125670;27;20749;-81
2023/07/08 06:19:45;;;;;;;7.32;3.35;;;21.40;99.90;;;;;;5125199;27;20210;-82
2023/07/08 06:22:12;;;;;;;3.75;3.47;;;21.40;99.90;;;;;;5121580;27;20649;-79
2023/07/08 06:24:39;;;;;;;5.82;3.20;;;21.50;99.90;;;;;;5104472;28;20212;-76
2023/07/08 06:27:07;;;;;;;5.25;3.55;;;21.50;99.90;;;;;;5143420;27;20245;-77
2023/07/08 06:29:35;;;;;;;6.57;3.80;;;21.50;99.90;;;;;;5131299;27;20288;-76
2023/07/08 06:32:03;;;;;;;4.82;3.58;;;21.60;99.90;;;;;;5123860;27;20209;-76
2023/07/08 06:34:30;;;;;;;7.85;3.40;;;21.60;99.90;;;;;;5104152;28;20291;-77
2023/07/08 06:36:57;;;;;;;3.42;3.22;;;21.60;99.90;;;;;;5109391;27;20210;-77
2023/07/08 06:39:24;;;;;;;4.05;3.63;;;21.60;99.90;;;;;;5116079;28;20316;-77
2023/07/08 06:41:51;;;;;;;6.53;3.30;;;21.70;99.90;;;;;;5125019;28;20284;-77
2023/07/08 06:44:20;;;;;;;3.30;3.00;;;21.70;99.90;;;;;;5121780;28;20293;-79
2023/07/08 06:46:50;;;;;;;4.40;3.17;;;21.70;99.90;;;;;;5107342;28;20261;-77
2023/07/08 06:49:18;;;;;;;4.95;3.78;;;21.80;99.90;;;;;;5109646;28;20296;-78
2023/07/08 06:51:45;;;;;;;3.78;3.45;;;21.80;99.90;;;;;;5114047;28;20702;-78
2023/07/08 06:54:12;;;;;;;3.65;3.03;;;21.80;99.90;;;;;;5104479;28;20212;-77
2023/07/08 06:56:39;;;;;;;6.05;3.42;;;21.80;99.90;;;;;;5135514;27;20800;-78
2023/07/08 06:59:06;;;;;;;3.55;3.25;;;21.90;99.90;;;;;;5134226;27;20570;-78
2023/07/08 07:01:33;;;;;;;4.25;3.25;;;21.90;99.90;;;;;;5109292;28;20316;-78
2023/07/08 07:04:01;;;;;;;4.18;3.35;;;21.90;99.90;;;;;;5109553;28;20321;-77
2023/07/08 07:06:29;;;;;;;3.53;3.22;;;22.00;99.90;;;;;;5108644;28;20229;-78
2023/07/08 07:08:56;;;;;;;4.22;3.83;;;22.00;99.90;;;;;;5109805;27;20582;-77
2023/07/08 07:11:23;;;;;;;8.85;3.45;;;22.10;99.90;;;;;;5129707;27;20227;-78
2023/07/08 07:13:50;;;;;;;4.00;3.00;;;22.10;99.90;;;;;;5129768;27;20688;-78
2023/07/08 07:16:17;;;;;;;5.60;3.33;;;22.10;99.90;;;;;;5130044;27;20475;-77
2023/07/08 07:18:44;;;;;;;3.35;3.15;;;22.10;99.90;;;;;;5130321;27;20284;-78
2023/07/08 07:21:11;;;;;;;3.70;3.33;;;22.10;99.90;;;;;;5129935;27;20281;-77
2023/07/08 07:23:39;;;;;;;3.13;2.92;;;22.10;99.90;;;;;;5129998;27;20205;-78
2023/07/08 07:26:07;;;;;;;3.35;3.08;;;22.20;99.90;;;;;;5142141;27;20327;-77
2023/07/08 07:28:34;;;;;;;3.08;2.88;;;22.20;99.90;;;;;;5143782;27;20198;-77
2023/07/08 07:31:01;;;;;;;4.80;2.85;;;22.20;99.90;;;;;;5129602;27;20779;-77
2023/07/08 07:33:28;;;;;;;8.90;6.63;;;22.30;99.90;;;;;;5115965;27;20732;-78
2023/07/08 07:35:55;;;;;;;7.20;6.50;;;22.30;99.90;;;;;;5109098;28;20218;-78
2023/07/08 07:38:24;;;;;;;3.85;3.60;;;22.30;99.90;;;;;;5109169;28;20718;-78
2023/07/08 07:40:53;;;;;;;3.50;3.20;;;22.40;99.90;;;;;;5109288;28;20618;-78
2023/07/08 07:43:20;;;;;;;3.72;3.42;;;22.40;99.90;;;;;;5108826;28;20298;-78
2023/07/08 07:45:51;;;;;;;3.40;3.03;;;22.50;99.90;;;;;;5108734;28;20988;-78
2023/07/08 07:48:18;;;;;;;3.45;3.13;;;22.50;99.90;;;;;;5109299;27;20214;-77
2023/07/08 07:50:46;;;;;;;5.22;2.97;;;22.50;99.90;;;;;;5108850;28;20271;-77
2023/07/08 07:53:13;;;;;;;3.97;3.20;;;22.60;99.90;;;;;;5109189;28;20206;-78
2023/07/08 07:55:40;;;;;;;4.90;2.83;;;22.70;99.90;;;;;;5127730;27;20239;-78
2023/07/08 07:58:11;;;;;;;3.92;3.10;;;22.80;99.90;;;;;;5149959;27;20292;-78
2023/07/08 08:00:38;;;;;;;3.33;3.13;;;22.80;99.90;;;;;;5150355;27;20185;-78
2023/07/08 08:03:04;;;;;;;4.03;2.90;;;22.90;99.90;;;;;;5122609;27;20289;-78
2023/07/08 08:05:31;;;;;;;3.72;2.90;;;23.00;99.90;;;;;;5109791;27;20217;-78
2023/07/08 08:07:58;;;;;;;2.90;2.70;;;23.10;99.90;;;;;;5129231;27;20209;-78
2023/07/08 08:10:25;;;;;;;3.60;2.88;;;23.20;99.90;;;;;;5128726;27;20211;-79
2023/07/08 08:12:52;;;;;;;4.45;2.78;;;23.20;99.90;;;;;;5128092;27;20237;-77
2023/07/08 08:15:21;;;;;;;3.35;2.85;;;23.20;99.90;;;;;;5129451;27;20230;-77
2023/07/08 08:17:49;;;;;;;2.80;2.60;;;23.30;99.90;;;;;;5112057;27;20237;-77
2023/07/08 08:20:16;;;;;;;3.25;2.80;;;23.30;99.90;;;;;;5108374;28;20691;-77
2023/07/08 08:22:44;;;;;;;3.15;2.85;;;23.40;99.90;;;;;;5128258;27;20653;-77
2023/07/08 08:25:11;;;;;;;3.65;2.67;;;23.50;99.90;;;;;;5132013;27;20725;-77
2023/07/08 08:27:38;;;;;;;5.45;3.00;;;23.50;99.90;;;;;;5149506;27;20234;-77
2023/07/08 08:30:07;;;;;;;5.90;3.22;;;23.60;99.90;;;;;;5146528;27;20686;-77
2023/07/08 08:32:35;;;;;;;3.55;2.75;;;23.60;99.90;;;;;;5130823;27;20277;-77
2023/07/08 08:35:02;;;;;;;3.15;2.90;;;23.60;99.90;;;;;;5107700;28;20205;-77
2023/07/08 08:37:29;;;;;;;2.85;2.65;;;23.70;99.90;;;;;;5107962;28;20561;-77
2023/07/08 08:39:55;;;;;;;3.40;3.10;;;23.70;99.90;;;;;;5108414;28;20216;-77
2023/07/08 08:42:28;;;;;;;3.00;2.70;;;23.70;99.70;;;;;;5107763;28;20750;-78
2023/07/08 08:44:57;;;;;;;5.00;2.60;;;23.70;99.30;;;;;;5111365;27;20198;-77
2023/07/08 08:47:32;;;;;;;4.57;2.60;;;23.80;99.20;;;;;;5107456;28;20634;-77
2023/07/08 08:50:04;;;;;;;3.70;2.80;;;23.80;99.20;;;;;;5107595;28;20573;-77
2023/07/08 08:52:31;;;;;;;2.92;2.72;;;23.80;99.30;;;;;;5125250;27;20285;-77
2023/07/08 08:54:58;;;;;;;3.30;2.88;;;24.00;99.30;;;;;;5114647;27;20195;-77
2023/07/08 08:57:36;;;;;;;3.20;3.00;;;24.00;99.20;;;;;;5115885;27;20230;-77
2023/07/08 09:00:03;;;;;;;3.45;2.33;;;24.00;99.20;;;;;;5107449;28;20189;-77
2023/07/08 09:02:35;;;;;;;2.47;2.28;;;24.00;98.40;;;;;;5107241;28;20722;-77
2023/07/08 09:05:07;;;;;;;2.75;2.38;;;24.10;97.30;;;;;;5107321;27;20634;-77
2023/07/08 09:07:45;;;;;;;4.55;2.85;;;24.20;96.90;;;;;;5126031;27;20214;-78
2023/07/08 09:10:22;;;;;;;2.80;2.55;;;24.30;97.40;;;;;;5107631;27;20293;-77
2023/07/08 09:12:54;;;;;;;2.70;2.47;;;24.30;97.50;;;;;;5107263;28;20216;-77
2023/07/08 09:15:21;;;;;;;2.97;2.72;;;24.30;97.10;;;;;;5107326;28;20191;-77
2023/07/08 09:17:49;;;;;;;2.50;2.30;;;24.30;96.90;;;;;;5127226;27;20585;-77
2023/07/08 09:20:23;;;;;;;2.75;2.55;;;24.40;96.70;;;;;;5148882;27;20240;-76
2023/07/08 09:22:57;;;;;;;4.45;2.35;;;24.40;96.20;;;;;;5135362;27;20193;-77
2023/07/08 09:25:29;;;;;;;2.45;2.25;;;24.50;95.70;;;;;;5128543;27;20236;-77
2023/07/08 09:27:56;;;;;;;2.88;2.58;;;24.60;94.50;;;;;;5146933;27;20219;-77
2023/07/08 09:30:26;;;;;;;2.40;2.20;;;24.70;94.30;;;;;;5127826;27;20220;-78
2023/07/08 09:32:53;;;;;;;2.67;2.40;;;24.80;94.40;;;;;;5127119;27;20201;-77
2023/07/08 09:35:25;;;;;;;2.90;2.70;;;24.80;93.70;;;;;;5127674;27;20201;-77
2023/07/08 09:37:52;;;;;;;13.32;2.55;;;24.80;93.90;;;;;;5112723;27;20289;-77
2023/07/08 09:40:22;;;;;;;2.97;2.78;;;24.90;94.40;;;;;;5123615;27;20726;-77
2023/07/08 09:42:52;;;;;;;10.13;2.88;;;24.90;94.10;;;;;;5143829;27;20272;-77
2023/07/08 09:45:22;;;;;;;2.80;2.60;;;25.10;93.70;;;;;;5126779;27;20652;-77
2023/07/08 09:47:53;;;;;;;5.03;2.67;;;25.20;93.10;;;;;;5126461;27;20233;-77
2023/07/08 09:50:24;;;;;;;5.32;2.92;;;25.20;93.30;;;;;;5126806;27;20244;-76
2023/07/08 09:52:53;;;;;;;2.60;2.40;;;25.20;93.40;;;;;;5126510;27;20197;-77
2023/07/08 09:55:20;;;;;;;3.63;2.30;;;25.30;93.80;;;;;;5131350;27;20251;-76
2023/07/08 09:57:50;;;;;;;4.93;2.63;;;25.30;93.70;;;;;;5147047;27;20315;-77
2023/07/08 10:00:20;;;;;;;4.38;2.30;;;25.40;92.10;;;;;;5147598;27;20586;-77
2023/07/08 10:02:52;;;;;;;2.63;2.33;;;25.60;91.70;;;;;;5146967;27;20200;-78
2023/07/08 10:05:24;;;;;;;2.30;2.20;;;25.60;91.30;;;;;;5146271;27;20213;-77
2023/07/08 10:07:55;;;;;;;3.33;2.40;;;25.60;91.40;;;;;;5111932;27;20234;-77
2023/07/08 10:10:29;;;;;;;2.63;2.20;;;25.60;91.30;;;;;;5105587;28;20288;-77
2023/07/08 10:12:59;;;;;;;2.65;2.45;;;25.60;91.50;;;;;;5106400;27;20328;-77
2023/07/08 10:15:32;;;;;;;3.78;2.33;;;25.70;91.70;;;;;;5126174;27;20297;-77
2023/07/08 10:17:59;;;;;;;2.60;2.38;;;25.80;91.90;;;;;;5126310;27;20197;-77
2023/07/08 10:20:36;;;;;;;3.42;2.50;;;25.80;91.80;;;;;;5125741;27;20290;-77
2023/07/08 10:23:16;;;;;;;2.80;2.67;;;25.80;92.70;;;;;;5105856;28;20198;-77
2023/07/08 10:25:50;;;;;;;4.78;2.50;;;25.80;92.40;;;;;;5105618;28;20625;-76
2023/07/08 10:28:33;;;;;;;3.78;2.33;;;25.80;90.80;;;;;;5109639;27;20213;-77
2023/07/08 10:31:11;;;;;;;3.97;2.70;;;25.90;90.60;;;;;;5106351;28;20486;-77
2023/07/08 10:33:58;;;;;;;2.60;2.42;;;25.90;90.70;;;;;;5105467;28;20197;-77
2023/07/08 10:36:37;;;;;;;8.38;3.08;;;26.10;90.70;;;;;;5105341;27;20766;-76
2023/07/08 10:39:29;;;;;;;5.15;2.70;;;26.20;90.60;;;;;;5105994;28;20609;-76
2023/07/08 10:42:02;;;;;;;2.65;2.45;;;26.20;90.40;;;;;;5105766;28;20198;-77
2023/07/08 10:44:36;;;;;;;2.50;2.40;;;26.30;90.60;;;;;;5118915;28;20288;-77
2023/07/08 10:47:14;;;;;;;3.58;2.60;;;26.40;91.10;;;;;;5108569;28;20291;-77
2023/07/08 10:49:53;;;;;;;2.30;2.03;;;26.60;91.70;;;;;;5106063;28;20225;-77
2023/07/08 10:52:41;;;;;;;6.85;2.42;;;26.80;90.00;;;;;;5105735;28;20273;-77
2023/07/08 10:55:27;;;;;;;2.58;2.47;;;26.90;88.90;;;;;;5104597;28;20313;-76
2023/07/08 10:58:19;;;;;;;2.53;2.33;;;26.90;89.30;;;;;;5104949;28;20204;-77
2023/07/08 11:00:52;;;;;;;8.60;2.33;;;27.00;90.00;;;;;;5104489;28;20241;-77
2023/07/08 11:03:52;;;;;;;3.13;2.60;;;27.10;89.30;;;;;;5119645;28;20193;-77
2023/07/08 11:06:22;;;;;;;4.55;2.50;;;27.20;87.50;;;;;;5125509;28;20293;-77
2023/07/08 11:08:54;;;;;;;3.10;2.80;;;27.30;89.10;;;;;;5115559;28;20249;-77
2023/07/08 11:11:33;;;;;;;2.90;2.70;;;27.30;86.80;;;;;;5125643;27;20215;-77
2023/07/08 11:14:06;;;;;;;3.50;2.38;;;27.30;86.60;;;;;;5125510;28;20861;-77
2023/07/08 11:16:37;;;;;;;2.85;2.65;;;27.30;87.30;;;;;;5125432;28;20276;-77
2023/07/08 11:19:10;;;;;;;5.88;2.60;;;27.30;87.40;;;;;;5125707;27;20209;-76
2023/07/08 11:21:41;;;;;;;2.95;2.75;;;27.40;87.20;;;;;;5125593;28;20285;-77
2023/07/08 11:24:19;;;;;;;3.83;2.47;;;27.40;86.30;;;;;;5125509;28;20200;-77
2023/07/08 11:26:49;;;;;;;3.70;2.72;;;27.40;87.60;;;;;;5142182;27;20643;-76
2023/07/08 11:29:22;;;;;;;3.08;2.08;;;27.50;89.60;;;;;;5133517;27;20190;-77
2023/07/08 11:31:50;;;;;;;2.97;2.78;;;27.60;87.30;;;;;;5125288;27;20662;-77
2023/07/08 11:34:19;;;;;;;4.75;2.65;;;27.60;86.00;;;;;;5121357;28;20663;-76
2023/07/08 11:36:47;;;;;;;4.07;2.63;;;27.60;86.70;;;;;;5120344;28;20324;-77
2023/07/08 11:39:41;;;;;;;5.88;2.33;;;27.60;86.80;;;;;;5104795;28;20664;-77
2023/07/08 11:42:19;;;;;;;2.92;2.60;;;27.60;86.60;;;;;;5125872;28;20204;-76
2023/07/08 11:44:51;;;;;;;4.40;2.60;;;27.70;85.10;;;;;;5125537;28;20276;-77
2023/07/08 11:47:24;;;;;;;2.97;2.42;;;27.90;82.30;;;;;;5128760;27;20345;-76
2023/07/08 11:49:54;;;;;;;2.67;2.47;;;28.00;83.30;;;;;;5129143;27;20196;-77
2023/07/08 11:52:24;;;;;;;3.22;2.90;;;28.20;81.30;;;;;;5128589;27;20896;-77
2023/07/08 11:55:03;;;;;;;2.42;2.25;;;28.30;81.30;;;;;;5129004;27;20662;-76
2023/07/08 11:57:37;;;;;;;3.00;2.80;;;28.20;82.70;;;;;;5129116;27;20247;-77
2023/07/08 12:00:18;;;;;;;3.20;2.78;;;28.20;81.90;;;;;;5123703;27;20272;-76
2023/07/08 12:02:51;;;;;;;4.05;2.67;;;28.10;82.10;;;;;;5117164;27;20240;-76
2023/07/08 12:05:18;;;;;;;3.80;2.70;;;28.10;83.20;;;;;;5128849;27;20697;-77
2023/07/08 12:07:47;;;;;;;2.80;2.60;;;28.00;82.30;;;;;;5114937;27;20240;-77
2023/07/08 12:10:18;;;;;;;3.97;2.72;;;28.00;82.10;;;;;;5108256;28;20238;-76
2023/07/08 12:12:47;;;;;;;4.20;2.65;;;28.00;82.20;;;;;;5107857;28;20280;-77
2023/07/08 12:15:21;;;;;;;2.75;2.53;;;28.10;79.90;;;;;;5108075;28;20216;-76
2023/07/08 12:17:49;;;;;;;3.22;2.92;;;28.10;79.30;;;;;;5108037;28;20189;-76
2023/07/08 12:20:22;;;;;;;3.65;3.00;;;28.10;80.70;;;;;;5108099;28;20226;-77
2023/07/08 12:22:48;;;;;;;4.40;2.83;;;28.10;83.10;;;;;;5108163;28;20194;-77
2023/07/08 12:25:20;;;;;;;2.75;2.55;;;28.20;80.20;;;;;;5114842;27;20303;-76
2023/07/08 12:27:47;;;;;;;3.15;2.83;;;28.20;81.60;;;;;;5137597;27;20220;-76
2023/07/08 12:30:16;;;;;;;3.00;2.80;;;28.30;82.20;;;;;;5109806;27;20751;-76
2023/07/08 12:32:46;;;;;;;4.07;2.80;;;28.30;78.60;;;;;;5107876;28;20709;-76
2023/07/08 12:35:23;;;;;;;4.40;2.78;;;28.30;80.40;;;;;;5108248;28;20210;-76
2023/07/08 12:37:51;;;;;;;2.90;2.70;;;28.20;82.30;;;;;;5107899;28;20198;-76
2023/07/08 12:40:23;;;;;;;2.90;2.70;;;28.20;83.00;;;;;;5107557;28;20734;-76
2023/07/08 12:42:50;;;;;;;3.50;3.20;;;28.20;83.00;;;;;;5108148;28;20992;-77
2023/07/08 12:45:21;;;;;;;3.50;2.85;;;28.20;82.90;;;;;;5107936;28;20724;-76
2023/07/08 12:47:48;;;;;;;3.65;2.72;;;28.10;79.70;;;;;;5107875;28;20217;-76
2023/07/08 12:50:16;;;;;;;2.90;2.55;;;28.10;81.80;;;;;;5107527;28;20206;-76
2023/07/08 12:52:45;;;;;;;3.20;3.00;;;28.30;79.40;;;;;;5107743;28;20210;-77
2023/07/08 12:55:13;;;;;;;4.50;2.60;;;28.30;78.70;;;;;;5126539;27;20240;-76
2023/07/08 12:57:45;;;;;;;3.22;2.63;;;28.40;79.70;;;;;;5147487;27;20282;-76